KPIM/PIM METAR and TAF weather

Enter ICAO airport designator
Station Type Date Time Source
KPIM METAR 2020/04/05 18:15 UTC NOAA

KPIM 051815Z AUTO 31004KT 10SM OVC050 24/11 A3004 RMK AO2 T02410113


Station Type Date Time Source
KPIM Decoded METAR 2020/04/05 18:15 UTC NOAA

Station name not available
Apr 05, 2020 - 02:15 PM EDT / 2020.04.05 1815 UTC
Wind: from the NW (310 degrees) at 5 MPH (4 KT):0
Visibility: 10 mile(s):0
Sky conditions: overcast
Temperature: 75.4 F (24.1 C)
Dew Point: 52.3 F (11.3 C)
Relative Humidity: 44%
Pressure (altimeter): 30.04 in. Hg (1017 hPa)
ob: KPIM 051815Z AUTO 31004KT 10SM OVC050 24/11 A3004 RMK AO2 T02410113
cycle: 18

Station Type Date Time Source
KPIM TAF UTC NOAA

Error!

Example: see airport list